Orbital elements of SL-8 DEB
| Launched | 15 June 1993 |
| Flight ended | – |
| Launch site | Plesetsk Missile and Space Complex, Russia |
| Owner | Commonwealth of Independent States (former USSR) |
| NORAD ID | 25028 |
| Date fetched |
Epoch osculation |
Inc. [°] |
Ecc. | RA asc node [hr] |
Arg Peri. [°] |
Mean anom [°] |
Mean motion [rev/day] |
Abs. mag |
| Date fetched |
Epoch osculation |
Inc. [°] |
Ecc. | RA asc node [hr] |
Arg Peri. [°] |
Mean anom [°] |
Mean motion [rev/day] |
Abs. mag |
| 2026 May 05 17:57 | 2026 May 05 12:03:37 | 74.0429 | 0.00106 | 1.7958 | 239.2247 | 177.5385 | 14.41930 | – |
| 2026 May 04 17:57 | 2026 Apr 30 13:52:05 | 74.0428 | 0.00107 | 2.4041 | 248.9028 | 177.5385 | 14.41930 | – |
| 2026 May 03 17:57 | 2026 Apr 30 13:52:05 | 74.0428 | 0.00107 | 2.4041 | 248.9028 | 177.5385 | 14.41930 | – |
| 2026 May 02 17:57 | 2026 Apr 30 13:52:05 | 74.0428 | 0.00107 | 2.4041 | 248.9028 | 177.5385 | 14.41930 | – |
| 2026 May 01 17:56 | 2026 Apr 30 13:52:05 | 74.0428 | 0.00107 | 2.4041 | 248.9028 | 177.5385 | 14.41930 | – |
| 2026 Apr 30 17:56 | 2026 Apr 30 13:52:05 | 74.0428 | 0.00107 | 2.4041 | 248.9028 | 177.5385 | 14.41930 | – |
| 2026 Apr 29 17:57 | 2026 Apr 24 06:47:49 | 74.0422 | 0.00109 | 3.1816 | 261.1528 | 177.5385 | 14.41930 | – |
| 2026 Apr 28 17:56 | 2026 Apr 24 06:47:49 | 74.0422 | 0.00109 | 3.1816 | 261.1528 | 177.5385 | 14.41930 | – |
| 2026 Apr 27 17:58 | 2026 Apr 24 06:47:49 | 74.0422 | 0.00109 | 3.1816 | 261.1528 | 177.5385 | 14.41930 | – |
| 2026 Apr 26 17:58 | 2026 Apr 24 06:47:49 | 74.0422 | 0.00109 | 3.1816 | 261.1528 | 177.5385 | 14.41930 | – |
| 2026 Apr 25 17:58 | 2026 Apr 24 06:47:49 | 74.0422 | 0.00109 | 3.1816 | 261.1528 | 177.5385 | 14.41930 | – |
| 2026 Apr 24 17:59 | 2026 Apr 24 06:47:49 | 74.0422 | 0.00109 | 3.1816 | 261.1528 | 177.5385 | 14.41930 | – |
| 2026 Apr 23 17:57 | 2026 Apr 19 06:51:16 | 74.0416 | 0.00110 | 3.7989 | 270.6884 | 177.5385 | 14.41930 | – |
| 2026 Apr 22 17:57 | 2026 Apr 19 06:51:16 | 74.0416 | 0.00110 | 3.7989 | 270.6884 | 177.5385 | 14.41930 | – |
| 2026 Apr 21 17:57 | 2026 Apr 19 06:51:16 | 74.0416 | 0.00110 | 3.7989 | 270.6884 | 177.5385 | 14.41930 | – |
| 2026 Apr 20 17:57 | 2026 Apr 19 06:51:16 | 74.0416 | 0.00110 | 3.7989 | 270.6884 | 177.5385 | 14.41930 | – |
| 2026 Apr 19 17:58 | 2026 Apr 19 06:51:16 | 74.0416 | 0.00110 | 3.7989 | 270.6884 | 177.5385 | 14.41930 | – |
| 2026 Apr 18 17:56 | 2026 Apr 12 21:06:19 | 74.0405 | 0.00110 | 4.5902 | 282.7170 | 177.5385 | 14.41930 | – |
| 2026 Apr 16 17:57 | 2026 Apr 12 21:06:19 | 74.0405 | 0.00110 | 4.5902 | 282.7170 | 177.5385 | 14.41930 | – |
| 2026 Apr 14 17:57 | 2026 Apr 12 21:06:19 | 74.0405 | 0.00110 | 4.5902 | 282.7170 | 177.5385 | 14.41930 | – |
| 2026 Apr 13 17:57 | 2026 Apr 12 21:06:19 | 74.0405 | 0.00110 | 4.5902 | 282.7170 | 177.5385 | 14.41930 | – |
| 2026 Apr 12 17:57 | 2026 Apr 08 09:26:01 | 74.0396 | 0.00111 | 5.1444 | 290.9113 | 177.5385 | 14.41930 | – |
| 2026 Apr 11 17:57 | 2026 Apr 08 09:26:01 | 74.0396 | 0.00111 | 5.1444 | 290.9113 | 177.5385 | 14.41930 | – |
| 2026 Apr 10 17:58 | 2026 Apr 08 09:26:01 | 74.0396 | 0.00111 | 5.1444 | 290.9113 | 177.5385 | 14.41930 | – |
| 2026 Apr 09 18:01 | 2026 Apr 08 09:26:01 | 74.0396 | 0.00111 | 5.1444 | 290.9113 | 177.5385 | 14.41930 | – |
| 2026 Apr 08 17:57 | 2026 Apr 08 09:26:01 | 74.0396 | 0.00111 | 5.1444 | 290.9113 | 177.5385 | 14.41930 | – |